Time;durP1;ratioP1;P1;durP2;ratioP2;P2;SDS_P1;SDS_P2;PMS_P1;PMS_P2;Temp;Humidity;BMP_temperature;BMP_pressure;BME280_temperature;BME280_humidity;BME280_pressure;Samples;Min_cycle;Max_cycle;Signal;HPM_P1;HPM_P2
2022/07/19 00:00:10;;;;;;;6.40;4.70;;;19.70;99.90;;;;;;5076133;28;21015;-60
2022/07/19 00:02:37;;;;;;;6.63;5.20;;;19.80;99.90;;;;;;5076024;28;20448;-60
2022/07/19 00:05:04;;;;;;;6.27;5.47;;;19.60;99.90;;;;;;5076239;28;20426;-59
2022/07/19 00:07:31;;;;;;;5.17;4.67;;;19.60;99.90;;;;;;5076140;28;20458;-59
2022/07/19 00:09:58;;;;;;;6.83;5.30;;;19.60;99.90;;;;;;5076098;28;20587;-59
2022/07/19 00:12:26;;;;;;;6.20;5.60;;;19.50;99.90;;;;;;5076114;28;20442;-59
2022/07/19 00:14:52;;;;;;;6.40;5.50;;;19.40;99.90;;;;;;5075879;28;20489;-60
2022/07/19 00:17:19;;;;;;;5.97;4.60;;;19.30;99.90;;;;;;5075807;28;20529;-60
2022/07/19 00:19:45;;;;;;;5.60;5.10;;;19.10;99.90;;;;;;5075979;28;20447;-60
2022/07/19 00:22:12;;;;;;;5.67;4.77;;;19.00;99.90;;;;;;5075882;28;20453;-59
2022/07/19 00:24:38;;;;;;;7.23;5.00;;;18.90;99.90;;;;;;5075824;28;20546;-59
2022/07/19 00:27:05;;;;;;;5.23;4.83;;;19.00;99.90;;;;;;5074648;28;20447;-60
2022/07/19 00:29:33;;;;;;;5.60;5.00;;;19.00;99.90;;;;;;5075561;28;20972;-60
2022/07/19 00:31:59;;;;;;;6.07;5.53;;;19.00;99.90;;;;;;5075483;28;20541;-60
2022/07/19 00:34:25;;;;;;;6.80;4.70;;;19.00;99.90;;;;;;5075666;28;20990;-60
2022/07/19 00:36:52;;;;;;;5.60;4.90;;;18.80;99.90;;;;;;5075654;28;20447;-60
2022/07/19 00:39:18;;;;;;;7.13;5.97;;;18.90;99.90;;;;;;5075564;28;20943;-60
2022/07/19 00:41:45;;;;;;;7.93;4.67;;;18.80;99.90;;;;;;5075409;28;20448;-60
2022/07/19 00:44:12;;;;;;;11.33;5.07;;;18.70;99.90;;;;;;5075399;28;20493;-59
2022/07/19 00:46:40;;;;;;;4.60;4.20;;;18.70;99.90;;;;;;5075465;28;20527;-59
2022/07/19 00:49:07;;;;;;;5.80;5.30;;;18.90;99.90;;;;;;5075452;28;20444;-59
2022/07/19 00:51:35;;;;;;;11.33;4.67;;;18.80;99.90;;;;;;5075368;28;20444;-60
2022/07/19 00:54:03;;;;;;;7.83;4.77;;;18.80;99.90;;;;;;5075282;28;20487;-60
2022/07/19 00:56:32;;;;;;;8.93;5.20;;;19.00;99.90;;;;;;5074988;28;20479;-61
2022/07/19 00:59:00;;;;;;;5.03;4.53;;;19.00;99.90;;;;;;5075036;28;20458;-59
2022/07/19 01:01:27;;;;;;;7.93;5.70;;;19.20;99.90;;;;;;5075242;28;20465;-59
2022/07/19 01:03:56;;;;;;;5.53;4.90;;;19.20;99.90;;;;;;5075126;28;20457;-59
2022/07/19 01:06:23;;;;;;;5.07;4.57;;;19.30;99.90;;;;;;5075008;28;20447;-60
2022/07/19 01:08:49;;;;;;;5.50;5.07;;;19.20;99.90;;;;;;5074969;28;20457;-59
2022/07/19 01:11:16;;;;;;;5.63;5.13;;;18.90;99.90;;;;;;5074886;28;20453;-59
2022/07/19 01:13:43;;;;;;;6.40;4.97;;;18.80;99.90;;;;;;5074653;28;20494;-60
2022/07/19 01:16:10;;;;;;;9.13;5.30;;;18.80;99.90;;;;;;5074905;28;20448;-60
2022/07/19 01:18:36;;;;;;;5.10;4.70;;;18.70;99.90;;;;;;5074831;28;20448;-59
2022/07/19 01:21:05;;;;;;;5.30;4.90;;;18.50;99.90;;;;;;5074803;28;20513;-60
2022/07/19 01:23:33;;;;;;;5.20;4.70;;;18.60;99.90;;;;;;5074624;28;20435;-60
2022/07/19 01:25:59;;;;;;;5.50;4.90;;;18.60;99.90;;;;;;5074490;28;20443;-60
2022/07/19 01:28:26;;;;;;;5.77;5.10;;;18.40;99.90;;;;;;5074729;28;20849;-60
2022/07/19 01:30:52;;;;;;;7.50;4.80;;;18.40;99.90;;;;;;5074631;28;20449;-60
2022/07/19 01:33:19;;;;;;;5.20;4.80;;;18.50;99.90;;;;;;5074420;28;20443;-60
2022/07/19 01:35:45;;;;;;;5.30;4.80;;;18.40;99.90;;;;;;5074461;28;20953;-59
2022/07/19 01:38:12;;;;;;;7.60;5.33;;;18.10;99.90;;;;;;5074121;28;20807;-60
2022/07/19 01:40:40;;;;;;;5.63;4.80;;;18.00;99.90;;;;;;5074169;28;20493;-60
2022/07/19 01:43:08;;;;;;;7.60;5.70;;;18.10;99.90;;;;;;5074342;28;20451;-60
2022/07/19 01:45:35;;;;;;;5.40;4.83;;;18.10;99.90;;;;;;5074265;28;20452;-60
2022/07/19 01:48:01;;;;;;;9.00;5.10;;;18.30;99.90;;;;;;5074187;28;20443;-60
2022/07/19 01:50:28;;;;;;;5.80;5.30;;;18.00;99.90;;;;;;5074097;28;20451;-60
2022/07/19 01:52:54;;;;;;;5.27;4.87;;;17.80;99.90;;;;;;5074051;28;20950;-60
2022/07/19 01:55:21;;;;;;;6.30;4.73;;;17.60;99.90;;;;;;5073838;28;20483;-60
2022/07/19 01:57:50;;;;;;;6.57;5.30;;;17.50;99.90;;;;;;5073843;28;20475;-59
2022/07/19 02:00:17;;;;;;;5.87;5.20;;;17.50;99.90;;;;;;5073993;28;20457;-60
2022/07/19 02:02:44;;;;;;;5.30;4.90;;;17.70;99.90;;;;;;5073948;28;20448;-60
2022/07/19 02:05:10;;;;;;;6.80;6.10;;;17.70;99.90;;;;;;5073838;28;20538;-59
2022/07/19 02:07:37;;;;;;;4.70;4.30;;;17.80;99.90;;;;;;5073753;28;20451;-60
2022/07/19 02:10:04;;;;;;;6.83;5.30;;;17.80;99.90;;;;;;5073629;28;20422;-60
2022/07/19 02:12:31;;;;;;;5.70;5.20;;;17.90;99.90;;;;;;5073795;28;20448;-59
2022/07/19 02:14:59;;;;;;;5.33;4.90;;;17.80;99.90;;;;;;5073637;28;20478;-60
2022/07/19 02:17:25;;;;;;;4.73;4.17;;;17.80;99.90;;;;;;5073633;28;20443;-60
2022/07/19 02:19:52;;;;;;;5.23;4.73;;;17.70;99.90;;;;;;5073570;28;20449;-60
2022/07/19 02:22:18;;;;;;;6.07;5.57;;;17.70;99.90;;;;;;5073434;28;20841;-60
2022/07/19 02:24:45;;;;;;;4.90;4.50;;;17.50;99.90;;;;;;5073596;28;20454;-60
2022/07/19 02:27:12;;;;;;;5.00;4.60;;;17.40;99.90;;;;;;5073533;28;20542;-60
2022/07/19 02:29:39;;;;;;;5.97;5.47;;;17.50;99.90;;;;;;5073508;28;20422;-60
2022/07/19 02:32:07;;;;;;;5.40;4.90;;;17.50;99.90;;;;;;5073375;28;20450;-59
2022/07/19 02:34:35;;;;;;;6.30;5.50;;;17.50;99.90;;;;;;5073107;28;20563;-60
2022/07/19 02:37:02;;;;;;;7.10;5.37;;;17.40;99.90;;;;;;5073187;28;20590;-59
2022/07/19 02:39:28;;;;;;;5.20;4.70;;;17.30;99.90;;;;;;5073334;28;20447;-60
2022/07/19 02:41:55;;;;;;;5.37;4.80;;;17.30;99.90;;;;;;5073611;28;20421;-59
2022/07/19 02:44:21;;;;;;;6.67;5.33;;;17.50;99.90;;;;;;5073241;28;20550;-60
2022/07/19 02:46:48;;;;;;;7.43;5.47;;;17.40;99.90;;;;;;5073027;28;20927;-59
2022/07/19 02:49:16;;;;;;;6.37;5.47;;;17.30;99.90;;;;;;5072512;28;20513;-60
2022/07/19 02:51:42;;;;;;;7.50;5.87;;;17.00;99.90;;;;;;5072976;28;20486;-60
2022/07/19 02:54:09;;;;;;;5.50;4.97;;;16.90;99.90;;;;;;5073069;28;20457;-60
2022/07/19 02:56:36;;;;;;;5.33;4.90;;;16.70;99.90;;;;;;5072961;28;20456;-59
2022/07/19 02:59:02;;;;;;;7.50;5.40;;;16.70;99.90;;;;;;5073031;28;20426;-59
2022/07/19 03:01:29;;;;;;;5.87;5.37;;;16.80;99.90;;;;;;5073047;28;20542;-60
2022/07/19 03:03:57;;;;;;;5.63;5.13;;;16.80;99.90;;;;;;5072830;28;20602;-60
2022/07/19 03:06:25;;;;;;;6.60;5.40;;;16.70;99.90;;;;;;5073217;28;20480;-60
2022/07/19 03:08:52;;;;;;;8.30;5.80;;;16.80;99.90;;;;;;5073705;28;20458;-59
2022/07/19 03:11:18;;;;;;;6.60;5.40;;;16.60;99.90;;;;;;5072879;28;20448;-58
2022/07/19 03:13:45;;;;;;;7.40;5.80;;;16.60;99.90;;;;;;5072739;28;20528;-60
2022/07/19 03:16:11;;;;;;;5.23;4.67;;;16.50;99.90;;;;;;5072749;28;20478;-58
2022/07/19 03:18:38;;;;;;;8.47;5.83;;;16.60;99.90;;;;;;5072690;28;20947;-59
2022/07/19 03:21:05;;;;;;;6.03;5.20;;;16.70;99.90;;;;;;5072913;28;20451;-60
2022/07/19 03:23:34;;;;;;;5.43;4.83;;;16.70;99.90;;;;;;5072967;28;20453;-59
2022/07/19 03:26:01;;;;;;;6.30;5.80;;;16.70;99.90;;;;;;5072825;28;20502;-59
2022/07/19 03:28:28;;;;;;;5.87;5.37;;;16.70;99.90;;;;;;5073128;28;20480;-59
2022/07/19 03:30:54;;;;;;;9.57;6.00;;;16.60;99.90;;;;;;5072682;28;20447;-59
2022/07/19 03:33:21;;;;;;;5.77;4.63;;;16.50;99.90;;;;;;5072653;28;20883;-60
2022/07/19 03:35:48;;;;;;;5.93;5.10;;;16.50;99.90;;;;;;5072662;28;20454;-59
2022/07/19 03:38:16;;;;;;;5.87;5.27;;;16.60;99.90;;;;;;5072712;28;20570;-59
2022/07/19 03:40:44;;;;;;;7.10;5.30;;;16.60;99.90;;;;;;5072646;28;20474;-59
2022/07/19 03:43:11;;;;;;;5.87;5.47;;;16.70;99.90;;;;;;5072588;28;20430;-59
2022/07/19 03:45:37;;;;;;;6.20;5.53;;;16.60;99.90;;;;;;5072380;28;20519;-59
2022/07/19 03:48:04;;;;;;;8.87;5.50;;;16.70;99.90;;;;;;5072678;28;20449;-59
2022/07/19 03:50:31;;;;;;;5.90;5.50;;;16.70;99.90;;;;;;5072613;28;20422;-59
2022/07/19 03:52:57;;;;;;;5.93;5.20;;;16.60;99.90;;;;;;5072436;28;20542;-59
2022/07/19 03:55:24;;;;;;;6.33;5.73;;;16.50;99.90;;;;;;5072409;28;20833;-59
2022/07/19 03:57:52;;;;;;;5.97;5.37;;;16.50;99.90;;;;;;5072189;28;20533;-59
2022/07/19 04:00:18;;;;;;;5.73;5.23;;;16.50;99.90;;;;;;5073487;28;20810;-59
2022/07/19 04:02:45;;;;;;;9.37;6.10;;;16.60;99.90;;;;;;5076167;28;20537;-59
2022/07/19 04:05:12;;;;;;;5.40;4.90;;;16.40;99.90;;;;;;5076188;28;20550;-59
2022/07/19 04:07:39;;;;;;;7.40;5.20;;;16.50;99.90;;;;;;5075967;28;20953;-59
2022/07/19 04:10:06;;;;;;;10.40;6.27;;;16.60;99.90;;;;;;5075899;28;20542;-59
2022/07/19 04:12:34;;;;;;;10.10;5.83;;;16.70;99.90;;;;;;5075765;28;20534;-60
2022/07/19 04:15:02;;;;;;;5.97;5.47;;;16.80;99.90;;;;;;5075675;28;20486;-60
2022/07/19 04:17:29;;;;;;;6.13;5.40;;;16.90;99.90;;;;;;5075872;28;20784;-59
2022/07/19 04:19:55;;;;;;;7.00;5.77;;;17.00;99.90;;;;;;5075808;28;20561;-59
2022/07/19 04:22:23;;;;;;;5.87;5.30;;;17.00;99.90;;;;;;5075796;28;20451;-59
2022/07/19 04:24:50;;;;;;;8.80;5.87;;;16.90;99.90;;;;;;5075623;28;20422;-59
2022/07/19 04:27:16;;;;;;;5.80;5.30;;;17.10;99.90;;;;;;5075534;28;20447;-59
2022/07/19 04:29:43;;;;;;;6.73;5.70;;;17.30;99.90;;;;;;5075751;28;20428;-60
2022/07/19 04:32:11;;;;;;;10.07;6.00;;;17.40;99.90;;;;;;5075623;28;20454;-59
2022/07/19 04:34:37;;;;;;;7.47;6.03;;;17.50;99.90;;;;;;5075449;28;20486;-60
2022/07/19 04:37:04;;;;;;;7.77;7.03;;;17.70;99.90;;;;;;5075504;28;20448;-59
2022/07/19 04:39:30;;;;;;;6.10;5.50;;;17.80;99.90;;;;;;5075314;28;20447;-59
2022/07/19 04:41:57;;;;;;;7.30;5.90;;;17.80;99.90;;;;;;5075227;28;20426;-59
2022/07/19 04:44:23;;;;;;;6.80;6.10;;;17.80;99.90;;;;;;5075351;28;20447;-59
2022/07/19 04:46:49;;;;;;;5.83;5.30;;;17.80;99.90;;;;;;5075401;28;20483;-59
2022/07/19 04:49:17;;;;;;;7.03;6.40;;;17.70;99.90;;;;;;5075375;28;20938;-59
2022/07/19 04:51:44;;;;;;;6.80;5.20;;;17.90;99.90;;;;;;5075189;28;20450;-59
2022/07/19 04:54:10;;;;;;;9.70;6.43;;;18.00;99.90;;;;;;5075097;28;20978;-60
2022/07/19 04:56:37;;;;;;;7.70;5.90;;;18.20;99.90;;;;;;5074827;28;20458;-59
2022/07/19 04:59:03;;;;;;;5.77;5.00;;;18.40;99.90;;;;;;5075238;28;20858;-59
2022/07/19 05:01:31;;;;;;;7.93;5.67;;;18.50;99.90;;;;;;5075164;28;20448;-59
2022/07/19 05:03:57;;;;;;;8.43;7.17;;;18.70;99.90;;;;;;5074966;28;20426;-59
2022/07/19 05:06:25;;;;;;;7.17;6.40;;;18.90;99.90;;;;;;5074872;28;20447;-59
2022/07/19 05:08:52;;;;;;;9.07;5.87;;;18.90;99.90;;;;;;5074754;28;20553;-59
2022/07/19 05:11:19;;;;;;;19.03;7.00;;;18.90;99.90;;;;;;5074777;28;20960;-59
2022/07/19 05:13:45;;;;;;;13.70;7.00;;;19.20;99.90;;;;;;5074470;28;20450;-59
2022/07/19 05:16:12;;;;;;;8.60;5.23;;;19.30;99.90;;;;;;5074697;28;20490;-60
2022/07/19 05:18:38;;;;;;;10.07;6.20;;;19.50;99.90;;;;;;5074662;28;20447;-59
2022/07/19 05:21:05;;;;;;;6.77;4.93;;;19.80;99.90;;;;;;5074576;28;20453;-59
2022/07/19 05:23:33;;;;;;;6.57;5.97;;;20.00;99.90;;;;;;5074409;28;20475;-59
2022/07/19 05:25:59;;;;;;;6.27;5.37;;;20.30;99.90;;;;;;5074634;28;20449;-60
2022/07/19 05:28:26;;;;;;;7.73;5.13;;;20.50;99.90;;;;;;5074615;28;20447;-59
2022/07/19 05:30:52;;;;;;;6.90;4.83;;;20.80;99.90;;;;;;5074332;28;20535;-59
2022/07/19 05:33:19;;;;;;;5.87;4.60;;;21.10;99.90;;;;;;5074265;28;20454;-59
2022/07/19 05:35:45;;;;;;;4.50;4.10;;;21.30;99.90;;;;;;5073990;28;21113;-59
2022/07/19 05:38:12;;;;;;;5.70;4.17;;;21.60;99.90;;;;;;5073957;28;20477;-59
2022/07/19 05:40:40;;;;;;;4.63;4.17;;;21.80;99.90;;;;;;5074109;28;20447;-59
2022/07/19 05:43:06;;;;;;;7.10;4.20;;;22.10;99.90;;;;;;5074193;28;20451;-59
2022/07/19 05:45:33;;;;;;;4.43;4.03;;;22.30;99.90;;;;;;5074074;28;20830;-59
2022/07/19 05:47:59;;;;;;;4.40;3.23;;;22.50;99.90;;;;;;5074013;28;20460;-59
2022/07/19 05:50:26;;;;;;;3.60;3.30;;;22.70;99.90;;;;;;5073976;28;20810;-59
2022/07/19 05:52:52;;;;;;;4.70;3.70;;;22.90;99.90;;;;;;5073729;28;20451;-59
2022/07/19 05:55:19;;;;;;;4.87;4.10;;;23.00;99.90;;;;;;5073814;28;20483;-59
2022/07/19 05:57:47;;;;;;;4.47;4.00;;;23.10;99.90;;;;;;5073829;28;20479;-59
2022/07/19 06:00:14;;;;;;;4.63;4.30;;;23.40;99.90;;;;;;5073670;28;20457;-59
2022/07/19 06:02:40;;;;;;;4.53;3.40;;;23.50;99.90;;;;;;5073659;28;20455;-59
2022/07/19 06:05:08;;;;;;;3.47;3.10;;;23.60;99.90;;;;;;5073471;28;20454;-59
2022/07/19 06:07:35;;;;;;;3.70;3.40;;;23.70;99.90;;;;;;5073430;28;20459;-59
2022/07/19 06:10:01;;;;;;;3.90;3.60;;;23.80;99.90;;;;;;5073417;28;20454;-59
2022/07/19 06:12:28;;;;;;;3.70;2.90;;;23.90;99.90;;;;;;5073393;28;20448;-59
2022/07/19 06:14:56;;;;;;;3.40;3.10;;;24.00;99.90;;;;;;5073194;28;20481;-59
2022/07/19 06:17:22;;;;;;;4.03;3.63;;;24.20;99.90;;;;;;5073340;28;20546;-59
2022/07/19 06:19:49;;;;;;;3.60;2.80;;;24.30;99.90;;;;;;5073249;28;20453;-59
2022/07/19 06:22:15;;;;;;;4.37;3.80;;;24.40;99.90;;;;;;5073293;28;20451;-59
2022/07/19 06:24:42;;;;;;;6.00;3.87;;;24.40;99.90;;;;;;5072500;28;20454;-59
2022/07/19 06:27:08;;;;;;;7.27;3.77;;;24.50;99.90;;;;;;5073085;28;20452;-59
2022/07/19 06:29:35;;;;;;;3.97;2.93;;;24.60;99.90;;;;;;5073142;28;20577;-59
2022/07/19 06:32:03;;;;;;;3.70;3.40;;;24.60;99.90;;;;;;5073151;28;20955;-59
2022/07/19 06:34:29;;;;;;;6.80;4.70;;;24.70;99.90;;;;;;5072798;28;20447;-59
2022/07/19 06:36:56;;;;;;;3.87;3.37;;;24.90;99.90;;;;;;5073052;28;20483;-59
2022/07/19 06:39:22;;;;;;;4.90;3.83;;;25.00;99.90;;;;;;5073058;28;20538;-59
2022/07/19 06:41:49;;;;;;;3.90;3.63;;;25.10;99.90;;;;;;5072969;28;20451;-59
2022/07/19 06:44:15;;;;;;;11.27;4.30;;;25.00;99.90;;;;;;5072979;28;20930;-59
2022/07/19 06:46:42;;;;;;;4.13;3.20;;;25.00;99.90;;;;;;5072805;28;20444;-59
2022/07/19 06:49:09;;;;;;;3.73;3.43;;;25.10;99.90;;;;;;5073004;28;21208;-59
2022/07/19 06:51:36;;;;;;;3.80;3.50;;;25.10;99.90;;;;;;5072981;28;20477;-59
2022/07/19 06:54:02;;;;;;;3.60;3.27;;;25.10;99.90;;;;;;5072861;28;20462;-59
2022/07/19 06:56:29;;;;;;;3.57;3.27;;;25.30;99.90;;;;;;5072496;28;20489;-59
2022/07/19 06:58:55;;;;;;;3.80;3.47;;;25.40;99.90;;;;;;5072910;28;20600;-59
2022/07/19 07:01:22;;;;;;;4.03;3.53;;;25.30;99.90;;;;;;5072665;28;20444;-59
2022/07/19 07:03:48;;;;;;;3.43;3.00;;;25.40;99.90;;;;;;5072633;28;20447;-59
2022/07/19 07:06:16;;;;;;;3.93;3.23;;;25.60;99.90;;;;;;5073016;28;20443;-58
2022/07/19 07:08:43;;;;;;;5.07;3.40;;;25.70;99.90;;;;;;5072674;28;20450;-59
2022/07/19 07:11:09;;;;;;;3.27;3.00;;;25.80;99.90;;;;;;5072676;28;20448;-59
2022/07/19 07:13:37;;;;;;;5.40;3.63;;;26.00;99.90;;;;;;5072617;28;20449;-59
2022/07/19 07:16:03;;;;;;;3.43;3.10;;;26.10;99.90;;;;;;5072345;28;21022;-59
2022/07/19 07:18:30;;;;;;;2.90;2.50;;;26.20;99.90;;;;;;5072775;28;20478;-59
2022/07/19 07:20:56;;;;;;;4.57;3.43;;;26.30;99.90;;;;;;5072664;28;20451;-59
2022/07/19 07:23:25;;;;;;;2.83;2.40;;;26.40;99.30;;;;;;5072465;28;20589;-59
2022/07/19 07:25:53;;;;;;;4.70;3.20;;;26.40;99.00;;;;;;5072557;28;20451;-59
2022/07/19 07:28:20;;;;;;;7.50;3.23;;;26.50;99.90;;;;;;5072408;28;20443;-59
2022/07/19 07:30:46;;;;;;;6.40;3.60;;;26.50;99.00;;;;;;5072253;28;20447;-58
2022/07/19 07:33:13;;;;;;;5.10;3.90;;;26.50;98.20;;;;;;5072519;28;20447;-58
2022/07/19 07:35:39;;;;;;;3.43;2.80;;;26.50;97.90;;;;;;5073992;28;21023;-58
2022/07/19 07:38:06;;;;;;;5.80;3.30;;;26.60;98.20;;;;;;5076475;28;20474;-57
2022/07/19 07:40:34;;;;;;;5.00;2.93;;;26.80;97.60;;;;;;5076266;28;20448;-58
2022/07/19 07:43:02;;;;;;;6.13;3.23;;;26.90;97.40;;;;;;5076320;28;20452;-58
2022/07/19 07:45:29;;;;;;;4.30;3.27;;;27.00;97.00;;;;;;5076645;28;20454;-58
2022/07/19 07:47:56;;;;;;;4.43;2.87;;;27.00;97.30;;;;;;5076331;28;20898;-58
2022/07/19 07:50:22;;;;;;;3.13;2.70;;;27.10;96.80;;;;;;5076209;28;20452;-58
2022/07/19 07:52:49;;;;;;;9.07;3.47;;;27.30;96.40;;;;;;5076139;28;20802;-58
2022/07/19 07:55:16;;;;;;;3.40;3.20;;;27.50;97.70;;;;;;5075921;28;20443;-58
2022/07/19 07:57:44;;;;;;;7.90;3.93;;;27.70;96.70;;;;;;5075679;28;20481;-58
2022/07/19 08:00:13;;;;;;;4.60;3.00;;;27.90;96.10;;;;;;5075965;28;20453;-58
2022/07/19 08:02:40;;;;;;;3.83;3.43;;;27.60;94.30;;;;;;5075996;28;20458;-58
2022/07/19 08:05:08;;;;;;;4.67;2.73;;;27.90;95.30;;;;;;5075905;28;20447;-58
2022/07/19 08:07:34;;;;;;;5.40;2.90;;;28.20;92.20;;;;;;5075870;28;20538;-58
2022/07/19 08:10:01;;;;;;;4.27;2.50;;;28.40;91.50;;;;;;5075708;28;20443;-58
2022/07/19 08:12:28;;;;;;;3.07;2.40;;;28.60;91.00;;;;;;5075698;28;20929;-58
2022/07/19 08:14:56;;;;;;;6.93;2.20;;;28.80;91.10;;;;;;5075472;28;20807;-56
2022/07/19 08:17:22;;;;;;;4.80;2.77;;;29.00;90.40;;;;;;5075659;28;20925;-59
2022/07/19 08:19:49;;;;;;;3.50;2.60;;;29.30;87.80;;;;;;5075565;28;20534;-59
2022/07/19 08:22:16;;;;;;;4.00;2.47;;;29.40;88.40;;;;;;5075489;28;20447;-60
2022/07/19 08:24:42;;;;;;;8.57;3.43;;;29.60;87.30;;;;;;5075314;28;20473;-61
2022/07/19 08:27:09;;;;;;;4.00;2.80;;;29.60;82.90;;;;;;5075402;28;20451;-60
2022/07/19 08:29:35;;;;;;;2.67;2.47;;;29.40;84.40;;;;;;5075203;28;20946;-62
2022/07/19 08:32:04;;;;;;;7.03;3.20;;;29.50;86.10;;;;;;5075440;28;20534;-62
2022/07/19 08:34:30;;;;;;;4.03;2.70;;;29.50;84.80;;;;;;5075642;28;20450;-62
2022/07/19 08:36:57;;;;;;;3.20;2.83;;;29.40;84.60;;;;;;5074983;28;20573;-62
2022/07/19 08:39:23;;;;;;;7.67;2.70;;;29.40;83.90;;;;;;5075136;28;20447;-59
2022/07/19 08:41:50;;;;;;;5.93;2.80;;;29.50;84.40;;;;;;5075350;28;20874;-59
2022/07/19 08:44:18;;;;;;;3.03;2.70;;;29.50;82.20;;;;;;5075148;28;20451;-58
2022/07/19 08:46:44;;;;;;;4.80;2.97;;;29.50;80.60;;;;;;5074324;28;20999;-58
2022/07/19 08:49:12;;;;;;;3.63;2.70;;;29.40;81.50;;;;;;5075040;28;20538;-58
2022/07/19 08:51:39;;;;;;;4.73;2.87;;;29.60;80.20;;;;;;5074980;28;20447;-58
2022/07/19 08:54:06;;;;;;;3.73;2.60;;;29.70;79.30;;;;;;5074820;28;20443;-59
2022/07/19 08:59:17;;;;;;;4.63;2.65;;;30.30;82.20;;;;;;5074053;28;20449;-58
2022/07/19 09:01:43;;;;;;;6.50;3.00;;;30.50;75.60;;;;;;5074724;28;20619;-61
2022/07/19 09:04:15;;;;;;;3.83;2.30;;;30.30;74.70;;;;;;5074774;28;20457;-60
2022/07/19 09:06:44;;;;;;;4.07;2.80;;;30.20;70.60;;;;;;5074298;28;20450;-61
2022/07/19 09:09:11;;;;;;;2.47;2.27;;;30.30;73.00;;;;;;5074425;28;20189;-64
2022/07/19 09:11:48;;;;;;;3.90;2.57;;;30.40;73.60;;;;;;5074727;28;20954;-62
2022/07/19 09:14:15;;;;;;;2.57;2.27;;;30.50;71.50;;;;;;5074582;28;20818;-60
2022/07/19 09:16:53;;;;;;;2.50;2.30;;;30.60;73.40;;;;;;5074288;28;20483;-60
2022/07/19 09:19:21;;;;;;;2.93;2.17;;;30.80;70.60;;;;;;5074541;28;20493;-62
2022/07/19 09:21:57;;;;;;;3.50;3.20;;;30.80;68.90;;;;;;5074021;28;20542;-61
2022/07/19 09:24:25;;;;;;;8.10;2.70;;;30.80;70.00;;;;;;5071272;28;20475;-60
2022/07/19 09:26:56;;;;;;;3.10;2.43;;;30.90;70.10;;;;;;5073945;28;20539;-59
2022/07/19 09:29:23;;;;;;;2.80;2.60;;;31.00;68.90;;;;;;5074180;28;20810;-61
2022/07/19 09:32:04;;;;;;;5.27;2.20;;;31.00;67.40;;;;;;5074420;28;20449;-61
2022/07/19 09:34:34;;;;;;;4.70;2.30;;;30.90;67.70;;;;;;5074411;28;20955;-62
2022/07/19 09:37:19;;;;;;;2.30;2.03;;;31.20;67.60;;;;;;5074264;28;20566;-61
2022/07/19 09:39:48;;;;;;;2.87;2.30;;;31.50;66.80;;;;;;5074112;28;20444;-62
2022/07/19 09:42:16;;;;;;;3.17;1.97;;;31.90;63.30;;;;;;5074096;28;20443;-60
2022/07/19 09:44:44;;;;;;;2.40;2.10;;;32.20;61.60;;;;;;5074076;28;20450;-62
2022/07/19 09:47:10;;;;;;;2.77;2.57;;;32.20;62.50;;;;;;5073913;28;20443;-62
2022/07/19 09:49:38;;;;;;;5.83;1.63;;;32.30;60.50;;;;;;5073869;28;20471;-62
2022/07/19 09:52:05;;;;;;;2.50;2.40;;;32.10;59.50;;;;;;5073528;28;20530;-62
2022/07/19 09:54:32;;;;;;;4.37;2.20;;;32.30;59.70;;;;;;5073420;28;20478;-61
2022/07/19 09:57:00;;;;;;;9.47;3.03;;;32.50;60.90;;;;;;5073163;28;20479;-60
2022/07/19 09:59:27;;;;;;;2.50;2.27;;;32.60;59.00;;;;;;5073554;28;20538;-61
2022/07/19 10:01:55;;;;;;;4.27;2.50;;;32.50;59.30;;;;;;5073718;28;20527;-60
2022/07/19 10:04:24;;;;;;;6.07;2.10;;;32.70;58.80;;;;;;5073523;28;20534;-59
2022/07/19 10:06:53;;;;;;;4.97;2.03;;;32.90;58.70;;;;;;5073170;28;20454;-60
2022/07/19 10:09:23;;;;;;;2.70;2.50;;;32.60;57.00;;;;;;5073668;28;20481;-61
2022/07/19 10:11:50;;;;;;;4.07;2.20;;;32.60;56.70;;;;;;5073620;28;20478;-61
2022/07/19 10:14:16;;;;;;;2.77;2.57;;;32.40;56.50;;;;;;5073480;28;20446;-63
2022/07/19 10:16:55;;;;;;;2.73;2.23;;;32.60;57.50;;;;;;5073251;28;21036;-59
2022/07/19 10:19:31;;;;;;;7.30;2.67;;;32.80;56.90;;;;;;5073209;28;20448;-60
2022/07/19 10:22:00;;;;;;;3.40;2.60;;;33.00;57.50;;;;;;5073520;28;20451;-61
2022/07/19 10:24:44;;;;;;;4.33;2.77;;;33.10;56.30;;;;;;5073189;28;20448;-60
2022/07/19 10:27:11;;;;;;;2.37;2.17;;;33.20;55.60;;;;;;5072455;28;20522;-62
2022/07/19 10:29:38;;;;;;;2.63;2.43;;;32.90;55.20;;;;;;5062693;28;20800;-62
2022/07/19 10:32:07;;;;;;;2.90;2.17;;;32.60;55.70;;;;;;5073054;28;20454;-61
2022/07/19 10:34:34;;;;;;;2.70;2.00;;;32.80;55.90;;;;;;5073115;28;20482;-60
2022/07/19 10:37:02;;;;;;;2.43;2.23;;;33.10;56.00;;;;;;5073170;28;20495;-60
2022/07/19 10:39:33;;;;;;;3.73;2.33;;;33.20;54.40;;;;;;5072790;28;20486;-61
2022/07/19 10:42:11;;;;;;;3.57;2.00;;;32.90;54.80;;;;;;5072902;28;20443;-59
2022/07/19 10:45:12;;;;;;;3.80;2.30;;;32.70;53.60;;;;;;5072800;28;20937;-59
2022/07/19 10:48:15;;;;;;;2.87;2.53;;;32.40;54.30;;;;;;5072870;28;20459;-60
2022/07/19 10:50:44;;;;;;;3.40;2.37;;;32.80;54.50;;;;;;5070023;28;20490;-61
2022/07/19 10:53:35;;;;;;;4.13;2.80;;;33.30;54.10;;;;;;5072484;28;20539;-64
2022/07/19 10:56:24;;;;;;;3.17;2.27;;;33.40;52.90;;;;;;5070308;28;20826;-63
2022/07/19 10:58:53;;;;;;;2.23;2.03;;;33.40;52.40;;;;;;5068497;28;20973;-64
2022/07/19 11:01:21;;;;;;;3.60;2.60;;;33.40;52.00;;;;;;5072483;28;20450;-64
2022/07/19 11:03:49;;;;;;;2.47;2.20;;;33.50;52.00;;;;;;5072827;28;20454;-65
2022/07/19 11:06:21;;;;;;;5.63;2.47;;;33.70;50.50;;;;;;5072801;28;20545;-61
2022/07/19 11:08:49;;;;;;;3.40;2.20;;;33.70;51.20;;;;;;5072715;28;20530;-62
2022/07/19 11:11:18;;;;;;;2.53;2.23;;;34.00;51.20;;;;;;5072003;28;20538;-64
2022/07/19 11:13:47;;;;;;;2.70;2.13;;;34.30;50.80;;;;;;5072838;28;20449;-63
2022/07/19 11:16:14;;;;;;;5.83;2.57;;;34.50;51.70;;;;;;5072593;28;20538;-60
2022/07/19 11:18:40;;;;;;;3.00;2.30;;;34.60;51.40;;;;;;5072769;28;20454;-60
2022/07/19 11:21:07;;;;;;;2.30;2.10;;;34.60;48.50;;;;;;5072630;28;20447;-60
2022/07/19 11:23:36;;;;;;;12.03;2.90;;;33.80;48.90;;;;;;5072542;28;20542;-61
2022/07/19 11:26:09;;;;;;;2.50;1.90;;;33.80;48.70;;;;;;5072409;28;20451;-61
2022/07/19 11:28:37;;;;;;;3.53;2.30;;;34.20;49.20;;;;;;5072544;28;20537;-60
2022/07/19 11:31:12;;;;;;;1.97;1.87;;;34.50;49.20;;;;;;5072042;28;20504;-59
2022/07/19 11:33:38;;;;;;;4.20;2.10;;;34.80;48.10;;;;;;5072587;28;20859;-62
2022/07/19 11:36:05;;;;;;;2.50;2.30;;;34.90;48.20;;;;;;5072504;28;20450;-61
2022/07/19 11:38:40;;;;;;;2.43;1.93;;;35.20;47.40;;;;;;5071774;28;21019;-59
2022/07/19 11:41:15;;;;;;;2.43;2.23;;;35.40;47.00;;;;;;5069913;28;20447;-59
2022/07/19 11:43:42;;;;;;;3.00;2.60;;;35.60;46.80;;;;;;5072142;28;20501;-60
2022/07/19 11:46:09;;;;;;;2.30;1.83;;;35.50;46.70;;;;;;5071475;28;20479;-60
2022/07/19 11:48:36;;;;;;;3.23;2.87;;;35.60;46.80;;;;;;5071689;28;21004;-60
2022/07/19 11:51:06;;;;;;;4.63;2.40;;;35.50;46.80;;;;;;5072244;28;20897;-61
2022/07/19 11:53:34;;;;;;;12.00;2.80;;;35.50;47.20;;;;;;5072303;28;20451;-60
2022/07/19 11:56:01;;;;;;;2.37;2.13;;;35.80;46.50;;;;;;5072426;28;20479;-63
2022/07/19 11:58:29;;;;;;;2.77;2.57;;;35.00;45.10;;;;;;5072034;28;20518;-61
2022/07/19 12:01:02;;;;;;;3.20;1.70;;;35.10;46.50;;;;;;5072264;28;20538;-60
2022/07/19 12:03:28;;;;;;;2.30;2.20;;;35.10;44.90;;;;;;5071644;28;20447;-61
2022/07/19 12:05:58;;;;;;;3.77;2.40;;;35.20;45.90;;;;;;5071204;28;20447;-61
2022/07/19 12:08:37;;;;;;;3.17;2.30;;;35.50;45.90;;;;;;5071555;28;20490;-61
2022/07/19 12:11:16;;;;;;;3.50;2.87;;;35.20;45.00;;;;;;5072347;28;20497;-61
2022/07/19 12:13:45;;;;;;;2.80;2.60;;;35.10;45.40;;;;;;5072144;28;20447;-61
2022/07/19 12:16:13;;;;;;;4.50;3.23;;;35.10;46.30;;;;;;5072035;28;20529;-61
2022/07/19 12:18:45;;;;;;;3.90;3.37;;;35.20;44.70;;;;;;5071920;28;20482;-61
2022/07/19 12:21:27;;;;;;;2.90;2.70;;;34.40;44.40;;;;;;5072323;28;20444;-61
2022/07/19 12:24:21;;;;;;;9.20;3.83;;;34.60;45.00;;;;;;5075504;28;20898;-61
2022/07/19 12:27:00;;;;;;;4.83;2.53;;;35.10;44.80;;;;;;5075837;28;20521;-61
2022/07/19 12:29:30;;;;;;;3.30;2.90;;;34.80;45.00;;;;;;5075617;28;20463;-61
2022/07/19 12:31:59;;;;;;;3.40;2.20;;;34.60;44.40;;;;;;5075991;28;20454;-61
2022/07/19 12:34:26;;;;;;;3.37;2.80;;;34.70;44.40;;;;;;5075570;28;20815;-61
2022/07/19 12:36:53;;;;;;;2.90;2.70;;;34.90;44.40;;;;;;5075271;28;20485;-61
2022/07/19 12:39:28;;;;;;;3.50;3.03;;;35.20;45.00;;;;;;5075434;28;20547;-61
2022/07/19 12:42:00;;;;;;;3.33;2.47;;;35.30;44.20;;;;;;5075453;28;20541;-61
2022/07/19 12:44:28;;;;;;;3.30;3.00;;;35.40;44.80;;;;;;5075369;28;20546;-61
2022/07/19 12:46:56;;;;;;;2.73;2.53;;;35.20;44.30;;;;;;5075157;28;20458;-61
2022/07/19 12:49:23;;;;;;;3.10;2.73;;;35.20;44.90;;;;;;5075130;28;20538;-61
2022/07/19 12:51:50;;;;;;;7.63;3.03;;;35.50;44.20;;;;;;5075349;28;20857;-61